createdAt,value
2022-09-23T00:02:00.291Z,5.57
2022-09-23T00:04:29.417Z,7.15
2022-09-23T00:06:56.436Z,5.97
2022-09-23T00:09:24.369Z,6.75
2022-09-23T00:11:51.416Z,5.25
2022-09-23T00:14:18.857Z,7.33
2022-09-23T00:16:45.961Z,5.57
2022-09-23T00:19:13.044Z,5.50
2022-09-23T00:21:40.100Z,5.28
2022-09-23T00:24:08.049Z,4.53
2022-09-23T00:26:35.209Z,4.30
2022-09-23T00:29:02.332Z,5.00
2022-09-23T00:31:29.456Z,5.17
2022-09-23T00:33:57.753Z,5.68
2022-09-23T00:36:25.440Z,4.70
2022-09-23T00:38:52.939Z,5.32
2022-09-23T00:41:20.105Z,7.17
2022-09-23T00:43:48.970Z,5.20
2022-09-23T00:46:19.354Z,4.70
2022-09-23T00:48:47.204Z,4.43
2022-09-23T00:51:17.864Z,4.03
2022-09-23T00:53:46.700Z,6.28
2022-09-23T00:56:14.773Z,4.45
2022-09-23T00:58:43.524Z,3.85
2022-09-23T01:01:11.343Z,4.80
2022-09-23T01:03:38.427Z,3.97
2022-09-23T01:06:05.732Z,5.38
2022-09-23T01:08:33.031Z,5.13
2022-09-23T01:11:07.899Z,5.60
2022-09-23T01:13:42.485Z,3.92
2022-09-23T01:16:16.829Z,4.53
2022-09-23T01:19:03.845Z,4.25
2022-09-23T01:21:50.847Z,5.38
2022-09-23T01:24:37.903Z,7.03
2022-09-23T01:27:12.993Z,5.43
2022-09-23T01:29:40.185Z,4.03
2022-09-23T01:32:12.931Z,6.18
2022-09-23T01:34:47.784Z,4.22
2022-09-23T01:37:20.738Z,7.28
2022-09-23T01:39:54.291Z,4.03
2022-09-23T01:42:22.187Z,4.03
2022-09-23T01:44:56.284Z,4.63
2022-09-23T01:47:25.666Z,4.80
2022-09-23T01:50:00.318Z,4.80
2022-09-23T01:52:30.638Z,4.30
2022-09-23T01:55:03.235Z,5.82
2022-09-23T01:57:34.355Z,4.90
2022-09-23T02:00:10.382Z,4.53
2022-09-23T02:02:42.066Z,6.45
2022-09-23T02:05:10.259Z,4.68
2022-09-23T02:07:41.986Z,4.25
2022-09-23T02:10:18.647Z,7.18
2022-09-23T02:12:49.884Z,6.45
2022-09-23T02:15:19.826Z,4.80
2022-09-23T02:17:50.743Z,4.47
2022-09-23T02:20:20.925Z,5.65
2022-09-23T02:22:53.717Z,4.80
2022-09-23T02:25:23.124Z,7.70
2022-09-23T02:27:55.458Z,4.95
2022-09-23T02:30:27.098Z,5.13
2022-09-23T02:33:04.235Z,6.35
2022-09-23T02:35:36.019Z,6.53
2022-09-23T02:38:04.070Z,4.15
2022-09-23T02:40:31.358Z,4.95
2022-09-23T02:43:05.934Z,4.13
2022-09-23T02:45:33.713Z,6.35
2022-09-23T02:48:05.009Z,5.30
2022-09-23T02:50:33.003Z,3.42
2022-09-23T02:53:01.422Z,4.40
2022-09-23T02:55:32.921Z,4.25
2022-09-23T02:58:01.577Z,4.97
2022-09-23T03:00:34.176Z,4.03
2022-09-23T03:03:07.280Z,5.18
2022-09-23T03:05:39.656Z,4.57
2022-09-23T03:08:13.597Z,5.38
2022-09-23T03:10:54.132Z,4.60
2022-09-23T03:13:29.450Z,4.80
2022-09-23T03:16:03.859Z,4.22
2022-09-23T03:18:35.025Z,4.60
2022-09-23T03:21:04.316Z,4.93
2022-09-23T03:23:35.642Z,6.50
2022-09-23T03:26:07.827Z,4.10
2022-09-23T03:28:37.189Z,6.73
2022-09-23T03:31:04.750Z,4.35
2022-09-23T03:33:32.087Z,5.10
2022-09-23T03:36:25.348Z,5.73
2022-09-23T03:38:55.464Z,5.03
2022-09-23T03:41:28.921Z,4.10
2022-09-23T03:43:58.352Z,4.47
2022-09-23T03:46:30.167Z,6.27
2022-09-23T03:49:00.460Z,5.17
2022-09-23T03:51:27.507Z,5.87
2022-09-23T03:53:54.637Z,4.30
2022-09-23T03:56:22.705Z,4.40
2022-09-23T03:58:49.808Z,4.85
2022-09-23T04:01:16.925Z,4.63
2022-09-23T04:03:44.054Z,10.60
2022-09-23T04:06:11.120Z,4.40
2022-09-23T04:08:38.146Z,5.70
2022-09-23T04:11:05.412Z,7.70
2022-09-23T04:13:32.560Z,5.53
2022-09-23T04:15:59.688Z,5.47
2022-09-23T04:18:26.751Z,5.03
2022-09-23T04:20:58.908Z,5.47
2022-09-23T04:23:26.915Z,7.60
2022-09-23T04:25:54.215Z,4.63
2022-09-23T04:28:21.909Z,4.60
2022-09-23T04:30:49.043Z,6.30
2022-09-23T04:33:17.068Z,7.45
2022-09-23T04:35:44.250Z,5.40
2022-09-23T04:38:12.564Z,8.13
2022-09-23T04:40:39.900Z,6.97
2022-09-23T04:43:10.556Z,5.97
2022-09-23T04:45:39.992Z,5.17
2022-09-23T04:48:07.202Z,5.97
2022-09-23T04:50:34.360Z,5.80
2022-09-23T04:53:02.727Z,6.13
2022-09-23T04:55:30.157Z,6.67
2022-09-23T04:57:57.686Z,4.53
2022-09-23T05:00:24.753Z,6.73
2022-09-23T05:02:51.902Z,5.83
2022-09-23T05:05:20.979Z,6.53
2022-09-23T05:07:48.500Z,6.17
2022-09-23T05:10:15.935Z,8.33
2022-09-23T05:12:43.232Z,5.90
2022-09-23T05:15:10.411Z,4.77
2022-09-23T05:17:40.462Z,7.50
2022-09-23T05:20:08.072Z,9.13
2022-09-23T05:22:35.238Z,9.10
2022-09-23T13:01:18.994Z,2.08
2022-09-23T13:04:06.686Z,1.77
2022-09-23T13:06:38.445Z,1.90
2022-09-23T13:09:09.123Z,1.70
2022-09-23T13:11:37.450Z,1.58
2022-09-23T13:14:07.112Z,2.40
2022-09-23T13:16:38.078Z,1.40
2022-09-23T13:19:06.282Z,1.48
2022-09-23T13:21:49.599Z,1.50
2022-09-23T13:24:24.678Z,1.42
2022-09-23T13:26:57.159Z,1.98
2022-09-23T13:29:26.395Z,1.60
2022-09-23T13:31:54.202Z,1.90
2022-09-23T13:34:22.143Z,1.40
2022-09-23T13:36:49.295Z,2.23
2022-09-23T13:39:16.698Z,1.70
2022-09-23T13:41:44.735Z,1.60
2022-09-23T13:44:18.865Z,1.70
2022-09-23T13:46:48.151Z,1.98
2022-09-23T13:49:23.117Z,1.70
2022-09-23T13:51:50.690Z,1.70
2022-09-23T13:54:37.913Z,2.72
2022-09-23T13:57:04.999Z,1.73
2022-09-23T13:59:41.972Z,2.00
2022-09-23T14:02:17.132Z,1.40
2022-09-23T14:04:44.381Z,2.60
2022-09-23T14:07:13.389Z,1.40
2022-09-23T14:09:45.819Z,1.60
2022-09-23T14:12:13.159Z,1.45
2022-09-23T14:14:40.984Z,3.25
2022-09-23T14:17:08.651Z,2.80
2022-09-23T14:19:36.586Z,1.40
2022-09-23T14:22:03.705Z,1.50
2022-09-23T14:24:32.258Z,2.80
2022-09-23T14:27:01.578Z,3.22
2022-09-23T14:29:32.257Z,1.60
2022-09-23T14:32:00.740Z,1.50
2022-09-23T14:34:43.887Z,1.57
2022-09-23T14:37:50.784Z,2.00
2022-09-23T14:40:17.467Z,1.73
2022-09-23T14:42:47.252Z,1.73
2022-09-23T14:45:16.133Z,2.80
2022-09-23T14:47:45.160Z,1.80
2022-09-23T14:50:36.340Z,1.60
2022-09-23T14:53:05.311Z,2.08
2022-09-23T14:55:32.310Z,1.70
2022-09-23T14:58:04.654Z,1.60
2022-09-23T15:00:31.861Z,2.00
2022-09-23T15:03:00.526Z,1.67
2022-09-23T15:05:44.720Z,4.30
2022-09-23T15:08:14.058Z,3.90
2022-09-23T15:10:41.422Z,2.03
2022-09-23T15:13:12.257Z,2.30
2022-09-23T15:15:39.521Z,2.80
2022-09-23T15:18:11.943Z,2.50
2022-09-23T15:20:39.025Z,1.70
2022-09-23T15:23:06.086Z,2.20
2022-09-23T15:25:35.587Z,1.70
2022-09-23T15:28:16.782Z,2.53
2022-09-23T15:30:43.991Z,2.72
2022-09-23T15:33:16.421Z,2.25
2022-09-23T15:35:46.477Z,1.70
2022-09-23T15:38:13.696Z,2.45
2022-09-23T15:40:41.308Z,1.83
2022-09-23T15:43:21.098Z,1.63
2022-09-23T15:45:53.118Z,1.83
2022-09-23T15:48:22.778Z,2.40
2022-09-23T15:50:51.107Z,1.40
2022-09-23T15:53:19.667Z,2.40
2022-09-23T15:55:46.804Z,2.33
2022-09-23T15:58:14.045Z,1.65
2022-09-23T16:00:41.177Z,1.80
2022-09-23T16:03:08.182Z,2.58
2022-09-23T16:05:37.878Z,2.80
2022-09-23T16:08:09.019Z,2.17
2022-09-23T16:10:36.954Z,1.50
2022-09-23T16:13:05.009Z,1.52
2022-09-23T16:15:32.635Z,3.00
2022-09-23T16:18:00.342Z,4.63
2022-09-23T16:20:29.620Z,2.33
2022-09-23T16:22:59.607Z,2.42
2022-09-23T16:25:28.040Z,3.22
2022-09-23T16:27:55.623Z,2.67
2022-09-23T16:30:23.372Z,2.60
2022-09-23T16:32:51.685Z,1.90
2022-09-23T16:35:20.392Z,3.83
2022-09-23T16:37:48.084Z,5.47
2022-09-23T16:40:18.184Z,2.42
2022-09-23T16:42:46.392Z,2.67
2022-09-23T16:45:16.303Z,3.55
2022-09-23T16:47:45.128Z,2.58
2022-09-23T16:50:12.884Z,1.70
2022-09-23T16:52:40.530Z,2.22
2022-09-23T16:55:08.696Z,1.77
2022-09-23T16:57:37.048Z,4.30
2022-09-23T17:00:25.333Z,2.65
2022-09-23T17:03:12.368Z,2.80
2022-09-23T17:05:39.458Z,1.83
2022-09-23T17:08:07.743Z,2.45
2022-09-23T17:10:34.989Z,1.88
2022-09-23T17:13:02.092Z,2.60
2022-09-23T17:15:29.176Z,1.80
2022-09-23T17:17:56.290Z,2.58
2022-09-23T17:20:23.344Z,2.92
2022-09-23T17:22:50.463Z,4.77
2022-09-23T17:25:17.501Z,3.88
2022-09-23T17:27:44.674Z,7.07
2022-09-23T17:30:12.081Z,15.32
2022-09-23T17:32:39.184Z,12.75
2022-09-23T17:35:06.595Z,9.48
2022-09-23T17:37:33.757Z,3.90
2022-09-23T17:40:00.854Z,3.22
2022-09-23T17:42:27.968Z,5.93
2022-09-23T17:44:56.167Z,12.40
2022-09-23T17:47:23.693Z,3.35
2022-09-23T17:49:50.781Z,3.40
2022-09-23T17:52:18.635Z,3.17
2022-09-23T17:54:45.669Z,3.33
2022-09-23T17:57:13.130Z,5.20
2022-09-23T17:59:40.258Z,3.22
2022-09-23T18:02:07.239Z,9.43
2022-09-23T18:04:34.508Z,4.20
2022-09-23T18:07:01.574Z,4.25
2022-09-23T18:09:28.717Z,5.10
2022-09-23T18:11:56.286Z,7.97
2022-09-23T18:14:23.861Z,6.18
2022-09-23T18:16:53.498Z,5.47
2022-09-23T18:19:21.715Z,8.07
2022-09-23T18:21:50.521Z,8.60
2022-09-23T18:24:34.020Z,8.32
2022-09-23T18:27:01.987Z,8.18
2022-09-23T18:29:29.077Z,6.18
2022-09-23T18:31:56.268Z,10.98
2022-09-23T18:34:23.582Z,11.80
2022-09-23T18:36:50.782Z,13.43
2022-09-23T18:39:17.938Z,17.50
2022-09-23T18:41:45.025Z,15.57
2022-09-23T18:44:11.709Z,14.90
2022-09-23T18:46:38.780Z,15.48
2022-09-23T18:49:25.834Z,15.13
2022-09-23T18:51:55.671Z,10.77
2022-09-23T18:54:23.847Z,7.82
2022-09-23T18:56:52.737Z,7.20
2022-09-23T18:59:20.834Z,7.40
2022-09-23T19:01:49.485Z,6.57
2022-09-23T19:04:18.658Z,8.63
2022-09-23T19:06:46.019Z,7.90
2022-09-23T19:09:14.240Z,7.43
2022-09-23T19:11:41.346Z,8.18
2022-09-23T19:14:11.256Z,6.20
2022-09-23T19:16:39.217Z,5.90
2022-09-23T19:19:06.530Z,6.97
2022-09-23T19:21:33.945Z,7.05
2022-09-23T19:24:03.797Z,6.30
2022-09-23T19:26:33.872Z,6.47
2022-09-23T19:29:02.737Z,5.60
2022-09-23T19:31:31.448Z,7.27
2022-09-23T19:33:59.817Z,9.35
2022-09-23T19:36:28.860Z,6.18
2022-09-23T19:39:00.299Z,7.00
2022-09-23T19:41:29.440Z,6.70
2022-09-23T19:44:02.243Z,6.88
2022-09-23T19:46:31.046Z,8.05
2022-09-23T19:48:58.566Z,8.68
2022-09-23T19:51:25.675Z,10.65
2022-09-23T19:53:52.873Z,7.18
2022-09-23T19:56:20.271Z,7.35
2022-09-23T19:58:48.699Z,6.47
2022-09-23T20:01:16.506Z,6.30
2022-09-23T20:03:44.648Z,6.80
2022-09-23T20:06:12.011Z,7.57
2022-09-23T20:08:39.330Z,7.20
2022-09-23T20:11:10.076Z,6.45
2022-09-23T20:13:37.843Z,8.43
2022-09-23T20:16:09.332Z,7.15
2022-09-23T20:18:37.297Z,5.88
2022-09-23T20:21:04.963Z,8.02
2022-09-23T20:23:32.178Z,8.98
2022-09-23T20:26:20.062Z,8.65
2022-09-23T20:28:47.344Z,8.18
2022-09-23T20:31:15.195Z,7.30
2022-09-23T20:33:42.452Z,9.30
2022-09-23T20:36:10.236Z,6.85
2022-09-23T20:38:37.483Z,7.72
2022-09-23T20:41:05.195Z,7.53
2022-09-23T20:43:34.500Z,6.32
2022-09-23T20:46:03.176Z,7.70
2022-09-23T20:48:31.059Z,6.95
2022-09-23T20:51:06.005Z,8.07
2022-09-23T20:53:34.987Z,7.20
2022-09-23T20:56:02.768Z,6.78
2022-09-23T20:58:30.387Z,6.93
2022-09-23T21:01:02.754Z,7.63
2022-09-23T21:03:31.643Z,6.45
2022-09-23T21:06:00.465Z,7.60
2022-09-23T21:08:27.258Z,7.05
2022-09-23T21:10:55.453Z,6.10
2022-09-23T21:13:22.674Z,5.63
2022-09-23T21:15:50.157Z,6.37
2022-09-23T21:18:22.291Z,7.90
2022-09-23T21:21:05.706Z,7.32
2022-09-23T21:23:35.108Z,5.50
2022-09-23T21:26:04.260Z,5.82
2022-09-23T21:28:32.194Z,5.82
2022-09-23T21:31:00.545Z,7.73
2022-09-23T21:33:27.781Z,6.10
2022-09-23T21:35:55.849Z,6.30
2022-09-23T21:38:24.698Z,6.43
2022-09-23T21:40:59.531Z,6.13
2022-09-23T21:43:28.069Z,5.90
2022-09-23T21:45:58.813Z,6.75
2022-09-23T21:48:27.085Z,5.88
2022-09-23T21:50:54.788Z,6.93
2022-09-23T21:53:23.633Z,6.63
2022-09-23T21:55:51.021Z,7.80
2022-09-23T21:58:18.045Z,7.78
2022-09-23T22:00:45.217Z,5.68
2022-09-23T22:03:12.452Z,5.95
2022-09-23T22:05:43.163Z,5.30
2022-09-23T22:08:10.352Z,6.30
2022-09-23T22:10:38.274Z,5.20
2022-09-23T22:13:12.591Z,6.38
2022-09-23T22:15:40.102Z,5.20
2022-09-23T22:18:07.888Z,6.20
2022-09-23T22:20:34.968Z,7.10
2022-09-23T22:23:02.042Z,12.50
2022-09-23T22:25:29.092Z,8.65
2022-09-23T22:28:16.089Z,8.17
2022-09-23T22:31:03.152Z,6.80
2022-09-23T22:33:30.270Z,6.78
2022-09-23T22:36:04.332Z,6.68
2022-09-23T22:38:32.773Z,6.07
2022-09-23T22:41:00.150Z,7.82
2022-09-23T22:43:27.416Z,6.07
2022-09-23T22:45:54.468Z,7.50
2022-09-23T22:48:21.561Z,5.90
2022-09-23T22:50:48.568Z,6.97
2022-09-23T22:53:15.832Z,5.60
2022-09-23T22:55:42.968Z,6.27
2022-09-23T22:58:30.752Z,5.43
2022-09-23T23:00:57.222Z,6.22
2022-09-23T23:03:26.577Z,6.53
2022-09-23T23:05:57.399Z,7.72
2022-09-23T23:08:24.915Z,7.38
2022-09-23T23:10:51.996Z,7.40
2022-09-23T23:13:19.162Z,6.68
2022-09-23T23:15:46.286Z,7.25
2022-09-23T23:18:13.423Z,6.85
2022-09-23T23:20:40.425Z,7.40
2022-09-23T23:23:07.460Z,7.80
2022-09-23T23:25:34.673Z,7.25
2022-09-23T23:28:01.864Z,8.40
2022-09-23T23:30:29.122Z,7.38
2022-09-23T23:32:56.087Z,6.82
2022-09-23T23:35:23.555Z,8.02
2022-09-23T23:37:50.700Z,6.70
2022-09-23T23:40:22.485Z,7.20
2022-09-23T23:42:49.702Z,7.88
2022-09-23T23:45:17.335Z,6.55
2022-09-23T23:47:45.291Z,8.10
2022-09-23T23:50:12.395Z,7.30
2022-09-23T23:52:39.069Z,8.18
2022-09-23T23:55:06.319Z,8.30
2022-09-23T23:57:33.418Z,10.55
